TRA51K LGSK-LGMT
Flight info
| Callsign | TRA51K |
|---|---|
| Flight time | 0h 30m |
| Altitude | 21000 |
| Route | ETEKA UW58 ATROX DCT ETRUD DCT ERESO |
| Aircraft | B738/M-SDE2E3FGHIRWXY/LB1 |
Departure
| Time | 2026-05-05 03:34 |
|---|---|
| Airport | Skiathos Island National Airport (LGSK) |
Arrival
| Time | 2026-05-05 04:04 |
|---|---|
| Airport | Mytilene International Airport (LGMT) |
| Time | Latitude | Longitude | Altitude | Speed | Heading |
|---|---|---|---|---|---|
| 2026-05-05 03:15 | 39.17909 | 23.50241 | 40 ft | 0 kts | 289° |
| 2026-05-05 03:29 | 39.17903 | 23.50264 | 40 ft | 6 kts | 289° |
| 2026-05-05 03:29 | 39.17886 | 23.50311 | 38 ft | 6 kts | 335° |
| 2026-05-05 03:29 | 39.17862 | 23.50314 | 39 ft | 0 kts | 19° |
| 2026-05-05 03:31 | 39.17910 | 23.50353 | 44 ft | 13 kts | 59° |
| 2026-05-05 03:31 | 39.17950 | 23.50459 | 44 ft | 13 kts | 48° |
| 2026-05-05 03:31 | 39.18031 | 23.50509 | 48 ft | 13 kts | 19° |
| 2026-05-05 03:31 | 39.18116 | 23.50547 | 50 ft | 15 kts | 19° |
| 2026-05-05 03:32 | 39.18227 | 23.50596 | 56 ft | 17 kts | 19° |
| 2026-05-05 03:32 | 39.18337 | 23.50644 | 57 ft | 16 kts | 19° |
| 2026-05-05 03:32 | 39.18444 | 23.50691 | 61 ft | 16 kts | 18° |
| 2026-05-05 03:32 | 39.18522 | 23.50730 | 58 ft | 2 kts | 86° |
| 2026-05-05 03:33 | 39.18492 | 23.50742 | 59 ft | 4 kts | 187° |
| 2026-05-05 03:33 | 39.18353 | 23.50653 | 56 ft | 49 kts | 199° |
| 2026-05-05 03:33 | 39.17731 | 23.50376 | 40 ft | 137 kts | 198° |
| 2026-05-05 03:33 | 39.16646 | 23.49893 | 375 ft | 184 kts | 200° |
| 2026-05-05 03:34 | 39.15383 | 23.49326 | 1418 ft | 191 kts | 201° |
| 2026-05-05 03:34 | 39.14138 | 23.48775 | 2564 ft | 197 kts | 200° |
| 2026-05-05 03:34 | 39.12788 | 23.48177 | 3280 ft | 210 kts | 199° |
| 2026-05-05 03:34 | 39.11386 | 23.47555 | 3999 ft | 215 kts | 199° |
| 2026-05-05 03:35 | 39.09951 | 23.46921 | 4637 ft | 221 kts | 199° |
| 2026-05-05 03:35 | 39.08486 | 23.46293 | 5301 ft | 224 kts | 193° |
| 2026-05-05 03:35 | 39.06930 | 23.46330 | 5881 ft | 230 kts | 160° |
| 2026-05-05 03:35 | 39.05559 | 23.47386 | 6504 ft | 233 kts | 132° |
| 2026-05-05 03:36 | 39.04796 | 23.49163 | 7276 ft | 227 kts | 95° |
| 2026-05-05 03:36 | 39.04751 | 23.51171 | 8131 ft | 226 kts | 86° |
| 2026-05-05 03:36 | 39.04789 | 23.53203 | 8933 ft | 229 kts | 85° |
| 2026-05-05 03:36 | 39.04831 | 23.55261 | 9758 ft | 232 kts | 85° |
| 2026-05-05 03:37 | 39.04870 | 23.57345 | 10519 ft | 235 kts | 85° |
| 2026-05-05 03:37 | 39.04905 | 23.59472 | 11202 ft | 241 kts | 85° |
| 2026-05-05 03:37 | 39.04936 | 23.61647 | 11890 ft | 246 kts | 84° |
| 2026-05-05 03:37 | 39.04964 | 23.63869 | 12592 ft | 251 kts | 84° |
| 2026-05-05 03:38 | 39.04991 | 23.66134 | 13305 ft | 255 kts | 84° |
| 2026-05-05 03:38 | 39.05017 | 23.68428 | 14012 ft | 259 kts | 83° |
| 2026-05-05 03:38 | 39.05270 | 23.70692 | 14625 ft | 253 kts | 63° |
| 2026-05-05 03:38 | 39.05980 | 23.72754 | 15285 ft | 253 kts | 60° |
| 2026-05-05 03:39 | 39.06750 | 23.74882 | 15575 ft | 274 kts | 61° |
| 2026-05-05 03:39 | 39.07589 | 23.77202 | 15780 ft | 298 kts | 62° |
| 2026-05-05 03:39 | 39.08480 | 23.79696 | 16172 ft | 312 kts | 62° |
| 2026-05-05 03:39 | 39.09389 | 23.82268 | 16844 ft | 318 kts | 63° |
| 2026-05-05 03:40 | 39.10303 | 23.84870 | 17588 ft | 321 kts | 63° |
| 2026-05-05 03:40 | 39.11227 | 23.87508 | 18297 ft | 325 kts | 63° |
| 2026-05-05 03:40 | 39.12162 | 23.90182 | 18913 ft | 330 kts | 63° |
| 2026-05-05 03:40 | 39.13110 | 23.92889 | 19537 ft | 333 kts | 63° |
| 2026-05-05 03:41 | 39.14066 | 23.95624 | 20163 ft | 337 kts | 63° |
| 2026-05-05 03:41 | 39.15019 | 23.98353 | 20768 ft | 340 kts | 63° |
| 2026-05-05 03:41 | 39.15733 | 24.01291 | 21056 ft | 353 kts | 83° |
| 2026-05-05 03:41 | 39.15694 | 24.04533 | 21116 ft | 371 kts | 92° |
| 2026-05-05 03:42 | 39.15487 | 24.07934 | 21109 ft | 390 kts | 93° |
| 2026-05-05 03:42 | 39.15237 | 24.11479 | 21104 ft | 406 kts | 93° |
| 2026-05-05 03:42 | 39.14974 | 24.15169 | 21107 ft | 420 kts | 93° |
| 2026-05-05 03:42 | 39.14712 | 24.18977 | 21106 ft | 434 kts | 93° |
| 2026-05-05 03:43 | 39.14453 | 24.22902 | 21104 ft | 445 kts | 93° |
| 2026-05-05 03:43 | 39.14196 | 24.26917 | 21101 ft | 456 kts | 93° |
| 2026-05-05 03:43 | 39.13936 | 24.31030 | 21095 ft | 464 kts | 93° |
| 2026-05-05 03:43 | 39.13676 | 24.35180 | 21083 ft | 465 kts | 93° |
| 2026-05-05 03:44 | 39.13415 | 24.39316 | 21073 ft | 462 kts | 93° |
| 2026-05-05 03:44 | 39.13154 | 24.43427 | 21074 ft | 460 kts | 93° |
| 2026-05-05 03:44 | 39.12893 | 24.47528 | 21074 ft | 459 kts | 93° |
| 2026-05-05 03:44 | 39.12631 | 24.51624 | 21077 ft | 459 kts | 93° |
| 2026-05-05 03:45 | 39.12368 | 24.55714 | 21080 ft | 459 kts | 93° |
| 2026-05-05 03:45 | 39.12103 | 24.59813 | 21081 ft | 459 kts | 93° |
| 2026-05-05 03:45 | 39.11836 | 24.63920 | 21086 ft | 460 kts | 93° |
| 2026-05-05 03:45 | 39.11567 | 24.68028 | 21082 ft | 461 kts | 93° |
| 2026-05-05 03:46 | 39.11297 | 24.72141 | 21085 ft | 462 kts | 93° |
| 2026-05-05 03:46 | 39.11038 | 24.76261 | 21084 ft | 462 kts | 92° |
| 2026-05-05 03:46 | 39.10911 | 24.80394 | 21077 ft | 461 kts | 86° |
| 2026-05-05 03:46 | 39.11239 | 24.84483 | 21080 ft | 459 kts | 77° |
| 2026-05-05 03:47 | 39.11921 | 24.88488 | 21086 ft | 458 kts | 75° |
| 2026-05-05 03:47 | 39.12617 | 24.92432 | 21080 ft | 456 kts | 75° |
| 2026-05-05 03:47 | 39.13313 | 24.96412 | 21072 ft | 444 kts | 75° |
| 2026-05-05 03:47 | 39.13967 | 25.00221 | 21079 ft | 440 kts | 75° |
| 2026-05-05 03:48 | 39.14621 | 25.04082 | 21089 ft | 442 kts | 75° |
| 2026-05-05 03:48 | 39.15268 | 25.07956 | 21051 ft | 442 kts | 76° |
| 2026-05-05 03:48 | 39.15912 | 25.11838 | 20487 ft | 441 kts | 76° |
| 2026-05-05 03:48 | 39.16542 | 25.15671 | 19879 ft | 435 kts | 76° |
| 2026-05-05 03:49 | 39.17164 | 25.19465 | 19250 ft | 430 kts | 75° |
| 2026-05-05 03:49 | 39.17777 | 25.23216 | 18618 ft | 426 kts | 75° |
| 2026-05-05 03:49 | 39.18384 | 25.26934 | 17911 ft | 422 kts | 75° |
| 2026-05-05 03:49 | 39.18984 | 25.30614 | 17224 ft | 418 kts | 75° |
| 2026-05-05 03:50 | 39.19578 | 25.34259 | 16564 ft | 413 kts | 75° |
| 2026-05-05 03:50 | 39.20162 | 25.37858 | 15940 ft | 408 kts | 75° |
| 2026-05-05 03:50 | 39.20739 | 25.41415 | 15325 ft | 403 kts | 75° |
| 2026-05-05 03:50 | 39.21308 | 25.44927 | 14723 ft | 399 kts | 74° |
| 2026-05-05 03:51 | 39.21870 | 25.48409 | 14120 ft | 394 kts | 74° |
| 2026-05-05 03:51 | 39.22426 | 25.51856 | 13476 ft | 391 kts | 74° |
| 2026-05-05 03:51 | 39.22976 | 25.55266 | 12844 ft | 386 kts | 75° |
| 2026-05-05 03:51 | 39.23515 | 25.58628 | 12263 ft | 380 kts | 75° |
| 2026-05-05 03:52 | 39.24047 | 25.61944 | 11673 ft | 375 kts | 75° |
| 2026-05-05 03:52 | 39.24570 | 25.65215 | 11174 ft | 369 kts | 75° |
| 2026-05-05 03:52 | 39.25074 | 25.68378 | 11056 ft | 352 kts | 74° |
| 2026-05-05 03:52 | 39.25555 | 25.71407 | 10908 ft | 338 kts | 74° |
| 2026-05-05 03:53 | 39.26017 | 25.74321 | 10770 ft | 325 kts | 74° |
| 2026-05-05 03:53 | 39.26464 | 25.77129 | 10639 ft | 313 kts | 74° |
| 2026-05-05 03:53 | 39.26894 | 25.79836 | 10510 ft | 303 kts | 73° |
| 2026-05-05 03:53 | 39.27309 | 25.82450 | 10392 ft | 292 kts | 73° |
| 2026-05-05 03:54 | 39.27711 | 25.84978 | 10275 ft | 283 kts | 73° |
| 2026-05-05 03:54 | 39.28098 | 25.87427 | 10159 ft | 274 kts | 73° |
| 2026-05-05 03:54 | 39.28472 | 25.89800 | 10013 ft | 267 kts | 73° |
| 2026-05-05 03:54 | 39.28842 | 25.92145 | 9713 ft | 266 kts | 73° |
| 2026-05-05 03:55 | 39.29152 | 25.94494 | 9418 ft | 268 kts | 83° |
| 2026-05-05 03:55 | 39.28959 | 25.96886 | 9236 ft | 267 kts | 93° |
| 2026-05-05 03:55 | 39.28655 | 25.99249 | 8944 ft | 266 kts | 93° |
| 2026-05-05 03:55 | 39.28345 | 26.01598 | 8669 ft | 265 kts | 93° |
| 2026-05-05 03:56 | 39.28040 | 26.03937 | 8411 ft | 264 kts | 93° |
| 2026-05-05 03:56 | 39.27739 | 26.06272 | 8124 ft | 263 kts | 93° |
| 2026-05-05 03:56 | 39.27441 | 26.08593 | 7875 ft | 263 kts | 93° |
| 2026-05-05 03:56 | 39.27144 | 26.10926 | 7585 ft | 264 kts | 93° |
| 2026-05-05 03:57 | 39.26849 | 26.13261 | 7314 ft | 265 kts | 93° |
| 2026-05-05 03:57 | 39.26652 | 26.14812 | 7120 ft | 265 kts | 92° |
| 2026-05-05 03:57 | 39.26357 | 26.17155 | 6840 ft | 265 kts | 92° |
| 2026-05-05 03:57 | 39.26062 | 26.19499 | 6568 ft | 264 kts | 93° |
| 2026-05-05 03:58 | 39.25667 | 26.22596 | 6180 ft | 263 kts | 93° |
| 2026-05-05 03:58 | 39.25377 | 26.24923 | 5911 ft | 263 kts | 93° |
| 2026-05-05 03:58 | 39.25081 | 26.27245 | 5609 ft | 262 kts | 93° |
| 2026-05-05 03:58 | 39.24784 | 26.29559 | 5343 ft | 259 kts | 93° |
| 2026-05-05 03:59 | 39.24589 | 26.31093 | 5265 ft | 254 kts | 94° |
| 2026-05-05 03:59 | 39.24304 | 26.33330 | 5110 ft | 250 kts | 93° |
| 2026-05-05 03:59 | 39.24026 | 26.35508 | 4974 ft | 242 kts | 94° |
| 2026-05-05 03:59 | 39.23754 | 26.37615 | 4894 ft | 235 kts | 93° |
| 2026-05-05 04:00 | 39.23494 | 26.39676 | 4760 ft | 230 kts | 93° |
| 2026-05-05 04:00 | 39.23210 | 26.41709 | 4556 ft | 234 kts | 102° |
| 2026-05-05 04:00 | 39.22331 | 26.43522 | 4230 ft | 246 kts | 130° |
| 2026-05-05 04:00 | 39.21064 | 26.45037 | 3876 ft | 252 kts | 134° |
| 2026-05-05 04:01 | 39.19774 | 26.46561 | 3521 ft | 259 kts | 134° |
| 2026-05-05 04:01 | 39.18378 | 26.48143 | 3241 ft | 264 kts | 139° |
| 2026-05-05 04:01 | 39.16963 | 26.49519 | 3178 ft | 255 kts | 141° |
| 2026-05-05 04:01 | 39.15545 | 26.50840 | 2960 ft | 249 kts | 141° |
| 2026-05-05 04:02 | 39.14167 | 26.52104 | 2750 ft | 236 kts | 141° |
| 2026-05-05 04:02 | 39.12898 | 26.53356 | 2349 ft | 228 kts | 137° |
| 2026-05-05 04:02 | 39.11692 | 26.54680 | 1805 ft | 222 kts | 140° |
| 2026-05-05 04:02 | 39.10570 | 26.55835 | 1413 ft | 199 kts | 143° |
| 2026-05-05 04:03 | 39.09478 | 26.56836 | 905 ft | 181 kts | 145° |
| 2026-05-05 04:03 | 39.08497 | 26.57675 | 617 ft | 163 kts | 150° |
| 2026-05-05 04:03 | 39.07552 | 26.58443 | 334 ft | 159 kts | 150° |
| 2026-05-05 04:03 | 39.06604 | 26.59202 | 95 ft | 159 kts | 150° |
| 2026-05-05 04:04 | 39.05805 | 26.59837 | 44 ft | 92 kts | 147° |
| 2026-05-05 04:04 | 39.05524 | 26.60067 | 35 ft | 21 kts | 148° |
| 2026-05-05 04:04 | 39.05429 | 26.60144 | 32 ft | 17 kts | 147° |
| 2026-05-05 04:04 | 39.05373 | 26.60259 | 31 ft | 17 kts | 56° |
| 2026-05-05 04:05 | 39.05402 | 26.60329 | 32 ft | 0 kts | 88° |